createdAt,value
2019-06-07T00:00:39.217Z,0.00
2019-06-07T00:05:31.245Z,0.00
2019-06-07T00:10:36.513Z,0.00
2019-06-07T00:15:31.166Z,0.00
2019-06-07T00:20:30.111Z,0.00
2019-06-07T00:25:28.974Z,0.00
2019-06-07T00:30:41.167Z,0.00
2019-06-07T00:35:29.837Z,0.00
2019-06-07T00:40:32.053Z,0.00
2019-06-07T00:45:28.708Z,0.00
2019-06-07T00:50:28.737Z,0.00
2019-06-07T00:55:28.574Z,0.00
2019-06-07T01:00:28.562Z,0.00
2019-06-07T01:05:31.460Z,0.00
2019-06-07T01:10:51.328Z,0.00
2019-06-07T01:15:29.514Z,0.00
2019-06-07T01:20:28.429Z,0.00
2019-06-07T01:25:29.038Z,0.00
2019-06-07T01:30:29.270Z,0.00
2019-06-07T01:35:29.999Z,0.00
2019-06-07T01:40:32.405Z,0.00
2019-06-07T01:45:30.872Z,0.00
2019-06-07T01:50:37.683Z,0.00
2019-06-07T01:55:32.365Z,0.00
2019-06-07T02:00:32.309Z,0.00
2019-06-07T02:05:30.862Z,0.00
2019-06-07T02:10:32.508Z,0.00
2019-06-07T02:15:32.037Z,0.00
2019-06-07T02:20:32.117Z,0.00
2019-06-07T02:25:40.605Z,0.00
2019-06-07T02:30:44.707Z,0.00
2019-06-07T02:35:34.774Z,0.00
2019-06-07T02:40:35.389Z,4.00
2019-06-07T02:45:35.414Z,4.00
2019-06-07T02:50:31.492Z,8.00
2019-06-07T02:55:31.259Z,16.00
2019-06-07T03:00:47.511Z,28.00
2019-06-07T03:05:30.545Z,56.00
2019-06-07T03:10:28.627Z,100.00
2019-06-07T03:15:35.388Z,168.00
2019-06-07T03:20:32.779Z,268.00
2019-06-07T03:25:28.193Z,400.00
2019-06-07T03:30:48.057Z,576.00
2019-06-07T03:35:30.990Z,800.00
2019-06-07T03:40:26.962Z,1112.00
2019-06-07T03:45:28.625Z,1504.00
2019-06-07T03:50:30.562Z,2208.00
2019-06-07T03:55:30.550Z,3188.00
2019-06-07T04:00:29.668Z,3592.00
2019-06-07T04:05:28.236Z,3816.00
2019-06-07T04:10:44.900Z,4044.00
2019-06-07T04:15:28.123Z,4892.00
2019-06-07T04:20:26.450Z,5992.00
2019-06-07T04:25:26.461Z,6888.00
2019-06-07T04:30:26.266Z,7324.00
2019-06-07T04:35:26.489Z,7264.00
2019-06-07T04:40:27.545Z,7900.00
2019-06-07T04:45:40.667Z,8680.00
2019-06-07T04:50:27.147Z,7880.00
2019-06-07T04:55:26.006Z,9148.00
2019-06-07T05:00:48.824Z,9912.00
2019-06-07T05:05:26.980Z,10924.00
2019-06-07T05:10:25.950Z,11948.00
2019-06-07T05:15:25.826Z,13076.00
2019-06-07T05:20:26.162Z,14156.00
2019-06-07T05:25:25.893Z,14844.00
2019-06-07T05:30:58.514Z,15696.00
2019-06-07T05:35:26.733Z,17920.00
2019-06-07T05:40:25.591Z,18368.00
2019-06-07T05:45:25.536Z,19072.00
2019-06-07T05:50:39.228Z,21344.00
2019-06-07T05:55:26.450Z,25696.00
2019-06-07T06:00:25.408Z,33504.00
2019-06-07T06:05:34.291Z,28480.00
2019-06-07T06:10:26.391Z,26560.00
2019-06-07T06:15:41.717Z,32160.00
2019-06-07T06:20:32.942Z,41984.00
2019-06-07T06:25:32.527Z,43104.00
2019-06-07T06:30:26.274Z,40512.00
2019-06-07T06:35:25.302Z,43232.00
2019-06-07T06:40:25.113Z,37664.00
2019-06-07T06:45:25.238Z,30112.00
2019-06-07T06:50:25.237Z,30848.00
2019-06-07T06:55:24.989Z,31584.00
2019-06-07T07:00:43.020Z,24480.00
2019-06-07T07:05:25.966Z,33312.00
2019-06-07T07:10:24.781Z,38016.00
2019-06-07T07:15:24.766Z,45568.00
2019-06-07T07:20:25.047Z,52192.00
2019-06-07T07:25:24.801Z,48032.00
2019-06-07T07:30:36.758Z,34496.00
2019-06-07T07:35:25.574Z,33408.00
2019-06-07T07:45:25.705Z,32992.00
2019-06-07T07:50:24.528Z,34304.00
2019-06-07T07:55:24.509Z,34464.00
2019-06-07T08:00:50.046Z,34432.00
2019-06-07T08:05:41.618Z,35040.00
2019-06-07T08:10:25.429Z,33408.00
2019-06-07T08:15:24.358Z,31840.00
2019-06-07T08:20:24.239Z,107840.00
2019-06-07T08:25:24.275Z,68736.00
2019-06-07T08:30:48.036Z,85888.00
2019-06-07T08:36:40.852Z,82816.00
2019-06-07T08:40:25.088Z,78816.00
2019-06-07T08:45:24.071Z,83744.00
2019-06-07T08:50:23.993Z,88576.00
2019-06-07T08:55:23.966Z,96640.00
2019-06-07T09:05:24.930Z,95392.00
2019-06-07T09:10:23.831Z,96512.00
2019-06-07T09:15:24.569Z,98016.00
2019-06-07T09:20:36.287Z,93952.00
2019-06-07T09:25:24.747Z,105952.00
2019-06-07T09:30:23.675Z,106496.00
2019-06-07T09:35:23.728Z,110944.00
2019-06-07T09:40:27.562Z,100960.00
2019-06-07T09:45:23.569Z,104352.00
2019-06-07T09:50:23.532Z,104256.00
2019-06-07T09:55:25.297Z,102432.00
2019-06-07T10:00:40.043Z,101728.00
2019-06-07T10:05:24.403Z,103520.00
2019-06-07T10:15:24.483Z,105664.00
2019-06-07T10:20:23.287Z,94912.00
2019-06-07T10:25:23.516Z,103232.00
2019-06-07T10:30:23.217Z,106432.00
2019-06-07T10:35:24.415Z,105152.00
2019-06-07T10:40:23.389Z,99520.00
2019-06-07T10:45:23.230Z,105600.00
2019-06-07T10:50:23.218Z,107744.00
2019-06-07T10:55:23.106Z,106464.00
2019-06-07T11:00:23.071Z,105312.00
2019-06-07T11:05:23.183Z,107680.00
2019-06-07T11:10:23.137Z,105312.00
2019-06-07T11:15:22.999Z,107712.00
2019-06-07T11:20:23.007Z,107264.00
2019-06-07T11:25:22.879Z,105952.00
2019-06-07T11:30:22.827Z,107424.00
2019-06-07T11:35:22.788Z,111808.00
2019-06-07T11:40:33.879Z,117728.00
2019-06-07T11:45:23.756Z,120672.00
2019-06-07T11:50:23.753Z,45856.00
2019-06-07T11:55:23.745Z,108928.00
2019-06-07T12:00:22.754Z,94560.00
2019-06-07T12:05:22.599Z,114048.00
2019-06-07T12:10:23.249Z,43392.00
2019-06-07T12:15:22.531Z,51968.00
2019-06-07T12:20:22.520Z,39296.00
2019-06-07T12:25:24.997Z,37888.00
2019-06-07T12:30:27.289Z,51264.00
2019-06-07T12:35:23.329Z,30592.00
2019-06-07T12:40:30.092Z,37984.00
2019-06-07T12:45:42.782Z,54080.00
2019-06-07T12:50:25.286Z,130656.00
2019-06-07T12:55:24.781Z,52576.00
2019-06-07T13:00:22.416Z,38336.00
2019-06-07T13:05:23.705Z,34816.00
2019-06-07T13:10:22.183Z,32288.00
2019-06-07T13:15:24.502Z,34144.00
2019-06-07T13:20:22.685Z,35840.00
2019-06-07T13:25:25.428Z,28224.00
2019-06-07T13:30:23.464Z,23168.00
2019-06-07T13:35:23.410Z,24288.00
2019-06-07T13:40:23.158Z,22240.00
2019-06-07T13:45:22.284Z,32384.00
2019-06-07T13:50:21.890Z,28256.00
2019-06-07T13:55:22.094Z,93856.00
2019-06-07T14:00:23.227Z,30304.00
2019-06-07T14:05:22.917Z,6352.00
2019-06-07T14:10:21.732Z,2652.00
2019-06-07T14:15:22.312Z,3372.00
2019-06-07T14:20:26.742Z,7228.00
2019-06-07T14:25:23.034Z,3776.00
2019-06-07T14:30:21.796Z,7400.00
2019-06-07T14:35:22.457Z,7144.00
2019-06-07T14:40:23.020Z,6912.00
2019-06-07T14:45:21.257Z,5244.00
2019-06-07T14:50:21.388Z,6872.00
2019-06-07T14:55:21.446Z,4448.00
2019-06-07T15:00:21.163Z,2840.00
2019-06-07T15:05:21.080Z,3812.00
2019-06-07T15:10:21.055Z,17952.00
2019-06-07T15:15:21.293Z,18944.00
2019-06-07T15:20:21.004Z,9708.00
2019-06-07T15:25:20.957Z,19808.00
2019-06-07T15:30:21.186Z,17024.00
2019-06-07T15:35:20.886Z,8692.00
2019-06-07T15:40:20.867Z,20672.00
2019-06-07T15:45:20.874Z,22464.00
2019-06-07T15:50:20.919Z,19200.00
2019-06-07T15:55:21.155Z,9948.00
2019-06-07T16:00:20.996Z,19840.00
2019-06-07T16:05:20.770Z,19168.00
2019-06-07T16:10:20.764Z,13360.00
2019-06-07T16:15:20.727Z,8976.00
2019-06-07T16:20:20.723Z,4920.00
2019-06-07T16:25:20.719Z,12296.00
2019-06-07T16:30:20.612Z,13112.00
2019-06-07T16:35:20.698Z,11328.00
2019-06-07T16:40:20.908Z,16024.00
2019-06-07T16:45:20.648Z,16708.00
2019-06-07T16:50:20.506Z,21440.00
2019-06-07T16:55:20.611Z,20960.00
2019-06-07T17:00:20.375Z,18752.00
2019-06-07T17:05:20.432Z,8096.00
2019-06-07T17:10:20.515Z,13056.00
2019-06-07T17:15:20.550Z,11044.00
2019-06-07T17:20:20.369Z,9792.00
2019-06-07T17:25:20.314Z,9020.00
2019-06-07T17:30:20.284Z,7336.00
2019-06-07T17:35:20.896Z,7388.00
2019-06-07T17:40:20.223Z,6124.00
2019-06-07T17:45:20.001Z,6880.00
2019-06-07T17:50:20.000Z,6092.00
2019-06-07T17:55:19.905Z,5132.00
2019-06-07T18:00:28.785Z,3412.00
2019-06-07T18:05:20.824Z,4092.00
2019-06-07T18:10:19.796Z,5100.00
2019-06-07T18:15:19.793Z,5788.00
2019-06-07T18:20:19.804Z,6732.00
2019-06-07T18:25:19.673Z,6680.00
2019-06-07T18:30:19.629Z,5136.00
2019-06-07T18:35:19.595Z,4624.00
2019-06-07T18:40:19.541Z,3632.00
2019-06-07T18:45:20.133Z,3284.00
2019-06-07T18:50:19.474Z,3272.00
2019-06-07T18:55:19.404Z,2756.00
2019-06-07T19:00:19.380Z,2916.00
2019-06-07T19:05:19.549Z,3032.00
2019-06-07T19:10:19.323Z,2816.00
2019-06-07T19:15:19.299Z,2592.00
2019-06-07T19:20:23.482Z,3024.00
2019-06-07T19:25:19.193Z,2040.00
2019-06-07T19:30:19.160Z,1420.00
2019-06-07T19:35:19.396Z,1300.00
2019-06-07T19:40:19.113Z,788.00
2019-06-07T19:45:34.481Z,504.00
2019-06-07T19:50:20.112Z,304.00
2019-06-07T19:55:19.049Z,168.00
2019-06-07T20:00:19.002Z,92.00
2019-06-07T20:05:18.999Z,60.00
2019-06-07T20:10:18.933Z,36.00
2019-06-07T20:15:28.474Z,20.00
2019-06-07T20:20:19.906Z,8.00
2019-06-07T20:25:18.777Z,8.00
2019-06-07T20:30:18.798Z,4.00
2019-06-07T20:35:18.718Z,0.00
2019-06-07T20:40:24.117Z,0.00
2019-06-07T20:45:32.437Z,0.00
2019-06-07T20:50:20.109Z,0.00
2019-06-07T20:55:18.584Z,0.00
2019-06-07T21:00:22.041Z,0.00
2019-06-07T21:05:18.591Z,0.00
2019-06-07T21:10:18.806Z,0.00
2019-06-07T21:15:18.502Z,0.00
2019-06-07T21:20:18.374Z,0.00
2019-06-07T21:25:18.375Z,0.00
2019-06-07T21:30:18.293Z,0.00
2019-06-07T21:35:18.318Z,0.00
2019-06-07T21:40:18.343Z,0.00
2019-06-07T21:45:18.265Z,0.00
2019-06-07T21:50:18.401Z,0.00
2019-06-07T21:55:18.202Z,0.00
2019-06-07T22:00:18.379Z,0.00
2019-06-07T22:05:18.131Z,0.00
2019-06-07T22:10:18.146Z,0.00
2019-06-07T22:15:32.150Z,0.00
2019-06-07T22:20:19.004Z,0.00
2019-06-07T22:25:18.181Z,0.00
2019-06-07T22:30:18.756Z,0.00
2019-06-07T22:35:19.250Z,0.00
2019-06-07T22:40:18.653Z,0.00
2019-06-07T22:45:18.969Z,0.00
2019-06-07T22:50:18.505Z,0.00
2019-06-07T22:55:18.208Z,0.00
2019-06-07T23:00:19.478Z,0.00
2019-06-07T23:05:18.879Z,0.00
2019-06-07T23:10:19.379Z,0.00
2019-06-07T23:15:18.270Z,0.00
2019-06-07T23:20:18.027Z,0.00
2019-06-07T23:25:20.903Z,0.00
2019-06-07T23:30:19.156Z,0.00
2019-06-07T23:35:18.949Z,0.00
2019-06-07T23:40:17.691Z,0.00
2019-06-07T23:45:17.668Z,0.00
2019-06-07T23:50:17.731Z,0.00
2019-06-07T23:55:17.940Z,0.00
